Time;durP1;ratioP1;P1;durP2;ratioP2;P2;SDS_P1;SDS_P2;PMS_P1;PMS_P2;Temp;Humidity;BMP_temperature;BMP_pressure;BME280_temperature;BME280_humidity;BME280_pressure;Samples;Min_cycle;Max_cycle;Signal;HPM_P1;HPM_P2
2022/02/03 00:00:42;;;;;;;;;;;;;;;18.47;48.54;100537.25;2064842;28;20000;-66
2022/02/03 00:02:19;;;;;;;;;;;;;;;18.46;48.56;100535.53;2065218;28;20839;-66
2022/02/03 00:03:14;;;;;;;;;;;;;;;18.45;48.62;100539.25;2059760;28;19989;-65
2022/02/03 00:04:17;;;;;;;;;;;;;;;18.46;48.47;100535.53;2059693;28;19910;-66
2022/02/03 00:05:24;;;;;;;;;;;;;;;18.43;48.44;100542.97;2061448;28;19917;-66
2022/02/03 00:06:47;;;;;;;;;;;;;;;18.41;48.58;100531.34;2066260;28;19928;-66
2022/02/03 00:21:59;;;;;;;;;;;;;;;18.32;48.84;100513.03;2065283;28;19916;-66
2022/02/03 00:24:16;;;;;;;;;;;;;;;18.30;48.72;100515.06;2067529;28;20036;-66
2022/02/03 00:26:07;;;;;;;;;;;;;;;18.31;48.88;100510.44;2068785;28;19917;-67
2022/02/03 00:27:19;;;;;;;;;;;;;;;18.32;48.76;100512.16;2069038;28;20380;-66
2022/02/03 00:28:25;;;;;;;;;;;;;;;18.29;48.84;100502.38;2065988;28;20432;-66
2022/02/03 00:29:45;;;;;;;;;;;;;;;18.31;48.92;100507.72;2067779;28;20010;-66
2022/02/03 00:32:03;;;;;;;;;;;;;;;18.30;48.90;100493.22;2064592;28;19967;-66
2022/02/03 00:34:25;;;;;;;;;;;;;;;18.29;48.83;100480.56;2066890;28;19925;-66
2022/02/03 00:37:08;;;;;;;;;;;;;;;18.28;48.81;100481.56;2065458;28;20300;-66
2022/02/03 00:49:50;;;;;;;;;;;;;;;18.23;48.97;100470.19;2058916;28;19936;-66
2022/02/03 00:50:52;;;;;;;;;;;;;;;18.22;48.92;100457.53;2066974;28;20348;-66
2022/02/03 00:51:57;;;;;;;;;;;;;;;18.22;49.05;100460.25;2066992;28;20043;-66
2022/02/03 00:52:58;;;;;;;;;;;;;;;18.22;48.97;100452.09;2067645;28;19916;-66
2022/02/03 00:53:59;;;;;;;;;;;;;;;18.21;49.21;100450.38;2063187;28;20304;-66
2022/02/03 00:54:59;;;;;;;;;;;;;;;18.22;49.25;100457.53;2065294;28;19931;-66
2022/02/03 00:56:02;;;;;;;;;;;;;;;18.23;49.03;100458.41;2062572;28;19917;-66
2022/02/03 00:57:04;;;;;;;;;;;;;;;18.22;49.13;100454.81;2068730;28;19987;-66
2022/02/03 00:58:07;;;;;;;;;;;;;;;18.23;49.02;100456.56;2068696;28;19930;-66
2022/02/03 00:59:09;;;;;;;;;;;;;;;18.21;49.15;100443.03;2063484;28;20031;-66
2022/02/03 01:00:11;;;;;;;;;;;;;;;18.23;48.91;100442.91;2064715;28;19915;-66
2022/02/03 01:01:14;;;;;;;;;;;;;;;18.23;49.05;100444.75;2069280;28;19909;-66
2022/02/03 01:02:14;;;;;;;;;;;;;;;18.21;49.07;100436.72;2066391;28;19916;-66
2022/02/03 01:03:16;;;;;;;;;;;;;;;18.21;49.17;100428.53;2069289;28;19948;-66
2022/02/03 01:04:17;;;;;;;;;;;;;;;18.20;49.03;100433.13;2062691;28;19925;-66
2022/02/03 01:05:18;;;;;;;;;;;;;;;18.19;49.08;100425.94;2067079;28;19917;-66
2022/02/03 01:06:21;;;;;;;;;;;;;;;18.20;48.82;100429.50;2063933;28;19952;-66
2022/02/03 01:07:22;;;;;;;;;;;;;;;18.21;48.98;100428.53;2067574;28;20011;-66
2022/02/03 01:08:24;;;;;;;;;;;;;;;18.21;48.90;100423.06;2068367;28;19917;-67
2022/02/03 01:09:26;;;;;;;;;;;;;;;18.19;48.83;100425.94;2069964;28;20457;-66
2022/02/03 01:10:31;;;;;;;;;;;;;;;18.19;48.90;100425.06;2067574;28;20827;-66
2022/02/03 01:11:37;;;;;;;;;;;;;;;18.19;48.84;100425.06;2068928;28;20384;-66
2022/02/03 01:13:52;;;;;;;;;;;;;;;18.20;48.89;100432.25;2067003;28;19917;-67
2022/02/03 01:15:16;;;;;;;;;;;;;;;18.20;48.99;100432.25;2069096;28;19917;-69
2022/02/03 01:21:58;;;;;;;;;;;;;;;18.17;48.74;100424.34;2065426;28;19921;-67
2022/02/03 01:44:05;;;;;;;;;;;;;;;18.02;49.10;100388.38;2064197;28;19981;-67
2022/02/03 01:45:19;;;;;;;;;;;;;;;18.04;49.12;100385.53;2060322;28;19917;-66
2022/02/03 01:46:27;;;;;;;;;;;;;;;18.03;49.38;100381.03;2060923;28;19987;-66
2022/02/03 01:52:29;;;;;;;;;;;;;;;18.04;49.04;100366.44;2062927;28;20241;-66
2022/02/03 01:53:30;;;;;;;;;;;;;;;18.02;49.20;100361.09;2064984;28;20762;-66
2022/02/03 01:54:30;;;;;;;;;;;;;;;18.05;49.08;100365.41;2063740;28;20756;-66
2022/02/03 01:55:31;;;;;;;;;;;;;;;18.04;49.03;100367.28;2064956;28;20282;-66
2022/02/03 01:56:39;;;;;;;;;;;;;;;18.04;49.04;100360.97;2064066;28;19923;-66
2022/02/03 01:57:39;;;;;;;;;;;;;;;18.03;49.06;100357.38;2066219;28;19933;-66
2022/02/03 01:58:53;;;;;;;;;;;;;;;18.02;49.20;100350.19;2064213;28;19924;-66
2022/02/03 01:59:58;;;;;;;;;;;;;;;18.02;49.22;100354.78;2067380;28;19939;-66
2022/02/03 02:01:02;;;;;;;;;;;;;;;18.03;49.12;100354.66;2059821;28;19936;-66
2022/02/03 02:02:03;;;;;;;;;;;;;;;18.03;49.00;100353.78;2067809;28;19909;-66
2022/02/03 02:03:09;;;;;;;;;;;;;;;18.02;49.11;100352.91;2065723;28;19923;-66
2022/02/03 02:04:11;;;;;;;;;;;;;;;18.02;49.27;100357.50;2066531;28;19921;-66
2022/02/03 02:05:37;;;;;;;;;;;;;;;18.02;49.22;100357.50;2068076;28;20598;-67
2022/02/03 02:06:52;;;;;;;;;;;;;;;18.02;49.16;100357.50;2061532;28;19917;-66
2022/02/03 02:07:56;;;;;;;;;;;;;;;18.01;49.23;100359.38;2068038;28;20419;-66
2022/02/03 02:09:08;;;;;;;;;;;;;;;18.00;49.15;100352.19;2065970;28;19917;-67
2022/02/03 02:11:40;;;;;;;;;;;;;;;17.99;49.15;100350.47;2064517;28;20383;-66
2022/02/03 02:13:02;;;;;;;;;;;;;;;17.97;49.35;100339.69;2060247;28;19928;-66
2022/02/03 02:18:47;;;;;;;;;;;;;;;17.93;49.36;100335.53;2067815;28;20382;-66
2022/02/03 02:38:29;;;;;;;;;;;;;;;17.88;49.47;100296.84;2064930;28;20545;-66
2022/02/03 02:40:00;;;;;;;;;;;;;;;17.87;49.19;100299.75;2063137;28;19921;-67
2022/02/03 02:43:45;;;;;;;;;;;;;;;17.86;49.30;100289.81;2059874;28;20428;-67
2022/02/03 02:45:05;;;;;;;;;;;;;;;17.86;49.42;100293.44;2065665;28;19917;-67
2022/02/03 02:46:11;;;;;;;;;;;;;;;17.85;49.27;100294.41;2067764;28;19983;-66
2022/02/03 02:47:15;;;;;;;;;;;;;;;17.85;49.17;100291.69;2064262;28;19926;-67
2022/02/03 02:48:21;;;;;;;;;;;;;;;17.85;49.22;100296.28;2067338;28;19949;-67
2022/02/03 02:49:21;;;;;;;;;;;;;;;17.85;49.45;100294.41;2066019;28;20012;-67
2022/02/03 02:50:34;;;;;;;;;;;;;;;17.84;49.09;100291.84;2062428;28;20376;-67
2022/02/03 02:52:11;;;;;;;;;;;;;;;17.83;49.42;100293.69;2065998;28;19997;-67
2022/02/03 02:57:43;;;;;;;;;;;;;;;17.78;49.50;100277.72;2040369;28;20848;-67
2022/02/03 03:03:22;;;;;;;;;;;;;;;17.76;49.62;100263.34;2062794;28;19994;-66
2022/02/03 03:30:14;;;;;;;;;;;;;;;17.73;48.97;100238.22;2069762;28;19946;-67
2022/02/03 03:35:54;;;;;;;;;;;;;;;17.74;49.10;100229.06;2062170;28;19924;-66
2022/02/03 03:36:56;;;;;;;;;;;;;;;17.73;48.81;100239.06;2065125;28;20336;-67
2022/02/03 03:38:00;;;;;;;;;;;;;;;17.72;49.05;100234.63;2065727;28;19979;-67
2022/02/03 03:39:02;;;;;;;;;;;;;;;17.72;49.22;100236.50;2064430;28;19921;-67
2022/02/03 03:40:04;;;;;;;;;;;;;;;17.71;49.16;100234.75;2066475;28;20023;-67
2022/02/03 03:41:05;;;;;;;;;;;;;;;17.70;49.23;100230.31;2067523;28;19917;-67
2022/02/03 03:42:06;;;;;;;;;;;;;;;17.69;49.13;100239.50;2062250;28;19924;-67
2022/02/03 03:43:07;;;;;;;;;;;;;;;17.68;49.18;100229.59;2063886;28;20376;-67
2022/02/03 03:44:11;;;;;;;;;;;;;;;17.68;49.22;100237.78;2066592;28;19917;-67
2022/02/03 03:45:12;;;;;;;;;;;;;;;17.67;49.42;100239.63;2067731;28;19909;-66
2022/02/03 03:46:21;;;;;;;;;;;;;;;17.67;49.35;100238.78;2062357;28;19963;-67
2022/02/03 03:47:26;;;;;;;;;;;;;;;17.66;49.23;100237.03;2062155;28;19917;-66
2022/02/03 03:48:34;;;;;;;;;;;;;;;17.66;49.36;100226.13;2065057;28;19913;-66
2022/02/03 03:49:42;;;;;;;;;;;;;;;17.65;49.38;100229.88;2067352;28;19917;-67
2022/02/03 03:50:45;;;;;;;;;;;;;;;17.64;49.35;100217.22;2061930;28;19925;-67
2022/02/03 03:51:47;;;;;;;;;;;;;;;17.63;49.17;100213.66;2064530;28;19963;-67
2022/02/03 03:53:03;;;;;;;;;;;;;;;17.63;49.49;100212.78;2064676;28;20494;-66
2022/02/03 03:54:07;;;;;;;;;;;;;;;17.63;49.46;100204.59;2066910;28;19932;-67
2022/02/03 03:55:17;;;;;;;;;;;;;;;17.62;49.53;100203.75;2066040;28;20291;-67
2022/02/03 03:56:47;;;;;;;;;;;;;;;17.61;49.23;100191.09;2066934;28;19916;-67
2022/02/03 04:31:38;;;;;;;;;;;;;;;17.47;49.51;100159.66;2062724;28;20364;-65
2022/02/03 04:44:11;;;;;;;;;;;;;;;17.46;49.53;100135.25;2065859;28;20383;-66
2022/02/03 05:09:40;;;;;;;;;;;;;;;17.35;49.40;100107.13;2065940;28;20411;-66
2022/02/03 05:10:51;;;;;;;;;;;;;;;17.35;49.59;100104.41;2060156;28;19917;-66
2022/02/03 05:15:20;;;;;;;;;;;;;;;17.35;49.65;100103.53;2067797;28;20370;-66
2022/02/03 05:26:34;;;;;;;;;;;;;;;17.40;49.22;100098.53;2061670;28;19925;-67
2022/02/03 05:42:25;;;;;;;;;;;;;;;17.34;49.16;100090.91;2065736;28;20004;-66
2022/02/03 05:44:22;;;;;;;;;;;;;;;17.33;49.19;100090.03;2064052;28;19924;-66
2022/02/03 05:46:40;;;;;;;;;;;;;;;17.33;49.45;100095.50;2060829;28;19963;-67
2022/02/03 05:52:35;;;;;;;;;;;;;;;17.32;49.17;100084.72;2067824;28;19956;-67
2022/02/03 06:02:50;;;;;;;;;;;;;;;17.28;49.48;100056.06;2064416;28;19925;-66
2022/02/03 06:05:12;;;;;;;;;;;;;;;17.29;49.13;100060.47;2060967;28;19945;-67
2022/02/03 06:07:56;;;;;;;;;;;;;;;17.28;49.32;100069.66;2062983;28;20000;-67
2022/02/03 06:13:12;;;;;;;;;;;;;;;17.27;49.17;100065.22;2066590;28;20299;-66
2022/02/03 06:14:15;;;;;;;;;;;;;;;17.26;49.16;100071.66;2063242;28;19920;-66
2022/02/03 06:16:57;;;;;;;;;;;;;;;17.25;49.42;100067.22;2065790;28;19921;-67
2022/02/03 06:22:28;;;;;;;;;;;;;;;17.21;49.36;100053.00;2057887;28;19914;-66
2022/02/03 06:23:41;;;;;;;;;;;;;;;17.21;49.27;100046.72;2068542;28;19917;-66
2022/02/03 06:27:36;;;;;;;;;;;;;;;17.21;49.45;100043.97;2064901;28;20806;-66
2022/02/03 06:28:42;;;;;;;;;;;;;;;17.21;49.40;100043.97;2062849;28;19924;-66
2022/02/03 06:29:49;;;;;;;;;;;;;;;17.21;49.38;100041.25;2065046;28;20774;-66
2022/02/03 06:30:49;;;;;;;;;;;;;;;17.22;49.30;100037.53;2065719;28;19963;-66
2022/02/03 06:31:51;;;;;;;;;;;;;;;17.22;49.33;100032.97;2065517;28;19913;-66
2022/02/03 06:32:51;;;;;;;;;;;;;;;17.23;49.38;100028.38;2067826;28;19948;-66
2022/02/03 06:33:52;;;;;;;;;;;;;;;17.22;49.45;100029.34;2066786;28;19917;-66
2022/02/03 06:34:52;;;;;;;;;;;;;;;17.23;49.34;100034.66;2066024;28;19917;-66
2022/02/03 06:35:52;;;;;;;;;;;;;;;17.25;49.18;100031.81;2064047;28;19909;-66
2022/02/03 06:36:53;;;;;;;;;;;;;;;17.24;49.08;100038.25;2064742;28;19913;-66
2022/02/03 06:37:54;;;;;;;;;;;;;;;17.24;49.15;100025.47;2066538;28;19920;-66
2022/02/03 06:38:54;;;;;;;;;;;;;;;17.25;48.92;100020.91;2067776;28;19921;-66
2022/02/03 06:39:54;;;;;;;;;;;;;;;17.25;48.95;100027.22;2067022;28;19927;-66
2022/02/03 06:40:55;;;;;;;;;;;;;;;17.26;49.03;100022.63;2067288;28;20392;-66
2022/02/03 06:41:58;;;;;;;;;;;;;;;17.26;48.76;100022.63;2066228;28;19951;-66
2022/02/03 06:42:58;;;;;;;;;;;;;;;17.26;48.89;100017.19;2066548;28;19971;-66
2022/02/03 06:43:59;;;;;;;;;;;;;;;17.26;48.74;100018.03;2067357;28;19970;-66
2022/02/03 06:45:30;;;;;;;;;;;;;;;17.27;48.90;100016.16;2064102;28;19956;-66
2022/02/03 06:46:32;;;;;;;;;;;;;;;17.27;48.90;100008.00;2059886;28;19957;-66
2022/02/03 06:47:47;;;;;;;;;;;;;;;17.27;48.50;100010.72;2068180;28;20054;-66
2022/02/03 06:48:54;;;;;;;;;;;;;;;17.25;48.78;100005.44;2065420;28;20354;-66
2022/02/03 06:51:17;;;;;;;;;;;;;;;17.26;48.51;100007.16;2067626;28;19924;-66
2022/02/03 06:52:27;;;;;;;;;;;;;;;17.26;48.54;100000.84;2067310;28;19921;-67
2022/02/03 06:53:32;;;;;;;;;;;;;;;17.26;48.46;100000.84;2066296;28;19924;-66
2022/02/03 06:54:42;;;;;;;;;;;;;;;17.26;48.88;100000.84;2065275;28;19925;-65
2022/02/03 06:55:51;;;;;;;;;;;;;;;17.26;48.60;100006.28;2068199;28;19920;-66
2022/02/03 06:56:57;;;;;;;;;;;;;;;17.26;48.64;100000.84;2066427;28;20478;-66
2022/02/03 06:58:06;;;;;;;;;;;;;;;17.26;48.73;100006.28;2065768;28;19921;-66
2022/02/03 06:59:12;;;;;;;;;;;;;;;17.26;48.51;100009.00;2065322;28;20376;-66
2022/02/03 07:00:20;;;;;;;;;;;;;;;17.27;48.93;100005.28;2064720;28;19917;-66
2022/02/03 07:01:27;;;;;;;;;;;;;;;17.27;48.82;100010.72;2066788;28;20378;-66
2022/02/03 07:02:31;;;;;;;;;;;;;;;17.25;48.69;100010.88;2066831;28;20324;-66
2022/02/03 07:03:36;;;;;;;;;;;;;;;17.27;48.79;100013.44;2068235;28;19990;-66
2022/02/03 07:04:44;;;;;;;;;;;;;;;17.28;48.70;100009.75;2062583;28;19921;-66
2022/02/03 07:05:44;;;;;;;;;;;;;;;17.27;48.91;100005.28;2063546;28;20173;-66
2022/02/03 07:06:45;;;;;;;;;;;;;;;17.27;48.68;100002.53;2066921;28;19917;-66
2022/02/03 07:07:45;;;;;;;;;;;;;;;17.27;48.69;100005.28;2064327;28;20411;-67
2022/02/03 07:08:47;;;;;;;;;;;;;;;17.26;48.46;100001.69;2064706;28;19952;-67
2022/02/03 07:09:50;;;;;;;;;;;;;;;17.28;48.59;100004.28;2062876;28;19914;-67
2022/02/03 07:10:53;;;;;;;;;;;;;;;17.28;48.63;100009.75;2063033;28;19925;-66
2022/02/03 07:11:54;;;;;;;;;;;;;;;17.28;48.68;100001.56;2066507;28;19917;-67
2022/02/03 07:12:58;;;;;;;;;;;;;;;17.29;48.81;100000.56;2066660;28;19921;-67
2022/02/03 07:13:58;;;;;;;;;;;;;;;17.28;48.78;100005.16;2066722;28;20529;-67
2022/02/03 07:15:00;;;;;;;;;;;;;;;17.29;48.65;100006.84;2069545;28;20015;-66
2022/02/03 07:16:01;;;;;;;;;;;;;;;17.30;48.88;99999.56;2060758;28;20272;-66
2022/02/03 07:17:03;;;;;;;;;;;;;;;17.29;48.57;99995.97;2068043;28;20633;-67
2022/02/03 07:18:04;;;;;;;;;;;;;;;17.30;48.65;99996.84;2065634;28;20679;-66
2022/02/03 07:19:04;;;;;;;;;;;;;;;17.30;48.55;99996.84;2061739;28;20026;-67
2022/02/03 07:20:06;;;;;;;;;;;;;;;17.30;48.63;99991.41;2067968;28;20008;-66
2022/02/03 07:21:07;;;;;;;;;;;;;;;17.29;48.55;99990.50;2064765;28;19917;-66
2022/02/03 07:22:07;;;;;;;;;;;;;;;17.29;48.58;99989.66;2066283;28;20376;-66
2022/02/03 07:23:09;;;;;;;;;;;;;;;17.30;48.48;99986.81;2062928;28;19983;-66
2022/02/03 07:24:09;;;;;;;;;;;;;;;17.31;48.64;99990.38;2067333;28;19929;-66
2022/02/03 07:25:10;;;;;;;;;;;;;;;17.31;48.56;99993.09;2064989;28;19917;-66
2022/02/03 07:26:11;;;;;;;;;;;;;;;17.32;48.48;99986.63;2063577;28;19924;-66
2022/02/03 07:27:11;;;;;;;;;;;;;;;17.33;48.46;99991.09;2062805;28;19924;-66
2022/02/03 07:28:12;;;;;;;;;;;;;;;17.33;48.52;99999.28;2066470;28;19917;-66
2022/02/03 07:29:12;;;;;;;;;;;;;;;17.33;48.45;99994.69;2065933;28;20363;-66
2022/02/03 07:30:13;;;;;;;;;;;;;;;17.34;48.43;99995.53;2063364;28;19924;-65
2022/02/03 07:31:13;;;;;;;;;;;;;;;17.34;48.38;99992.81;2060025;28;20599;-66
2022/02/03 07:32:14;;;;;;;;;;;;;;;17.34;48.55;99990.09;2062306;28;19925;-66
2022/02/03 07:33:15;;;;;;;;;;;;;;;17.34;48.46;99990.09;2062426;28;19917;-66
2022/02/03 07:34:17;;;;;;;;;;;;;;;17.33;48.36;99999.28;2068919;28;19921;-66
2022/02/03 07:35:18;;;;;;;;;;;;;;;17.33;48.35;99996.56;2063138;28;19917;-66
2022/02/03 07:36:18;;;;;;;;;;;;;;;17.31;48.26;99993.97;2066253;28;19923;-66
2022/02/03 07:37:21;;;;;;;;;;;;;;;17.31;48.13;99998.56;2066485;28;20416;-66
2022/02/03 07:38:22;;;;;;;;;;;;;;;17.31;48.20;99998.56;2062367;28;19917;-66
2022/02/03 07:39:22;;;;;;;;;;;;;;;17.31;48.40;99998.56;2061898;28;19910;-66
2022/02/03 07:40:23;;;;;;;;;;;;;;;17.30;48.25;99997.69;2063623;28;19920;-66
2022/02/03 07:41:23;;;;;;;;;;;;;;;17.32;48.36;100001.16;2063144;28;19925;-65
2022/02/03 07:42:24;;;;;;;;;;;;;;;17.32;48.34;100000.25;2066255;28;19965;-66
2022/02/03 07:43:24;;;;;;;;;;;;;;;17.31;48.01;99993.09;2067982;28;19984;-66
2022/02/03 07:44:25;;;;;;;;;;;;;;;17.30;48.02;99996.84;2062806;28;19974;-66
2022/02/03 07:45:25;;;;;;;;;;;;;;;17.30;48.20;99996.84;2065559;28;20344;-65
2022/02/03 07:46:25;;;;;;;;;;;;;;;17.29;48.19;99990.50;2063648;28;19960;-64
2022/02/03 07:47:25;;;;;;;;;;;;;;;17.30;47.96;99985.94;2064925;28;19921;-66
2022/02/03 07:48:26;;;;;;;;;;;;;;;17.32;48.03;99994.81;2065800;28;19960;-66
2022/02/03 07:49:29;;;;;;;;;;;;;;;17.31;48.17;99993.09;2065194;28;19948;-66
2022/02/03 07:50:30;;;;;;;;;;;;;;;17.31;47.88;99988.50;2064499;28;19949;-68
2022/02/03 07:51:30;;;;;;;;;;;;;;;17.32;47.99;99992.09;2065399;28;19920;-67
2022/02/03 07:52:31;;;;;;;;;;;;;;;17.34;47.79;99992.81;2066164;28;20007;-68
2022/02/03 07:53:31;;;;;;;;;;;;;;;17.34;47.92;99992.81;2066259;28;19925;-67
2022/02/03 07:54:32;;;;;;;;;;;;;;;17.34;47.83;99988.25;2063065;28;19924;-66
2022/02/03 07:55:32;;;;;;;;;;;;;;;17.36;47.74;100001.72;2059929;28;19913;-66
2022/02/03 07:56:32;;;;;;;;;;;;;;;17.37;47.72;99998.00;2062258;28;20466;-66
2022/02/03 07:57:33;;;;;;;;;;;;;;;17.36;47.58;99996.25;2064413;28;21029;-65
2022/02/03 07:58:33;;;;;;;;;;;;;;;17.36;47.79;100002.56;2067329;28;20003;-65
2022/02/03 07:59:34;;;;;;;;;;;;;;;17.36;47.76;100001.72;2063186;28;20118;-66
2022/02/03 08:00:34;;;;;;;;;;;;;;;17.35;47.71;100002.72;2066266;28;19975;-66
2022/02/03 08:01:35;;;;;;;;;;;;;;;17.35;47.68;99997.28;2060768;28;20339;-66
2022/02/03 08:02:36;;;;;;;;;;;;;;;17.37;47.75;100011.63;2063531;28;19917;-66
2022/02/03 08:03:41;;;;;;;;;;;;;;;17.36;47.82;100007.16;2061266;28;20936;-65
2022/02/03 08:04:46;;;;;;;;;;;;;;;17.36;47.68;100007.16;2066521;28;19928;-66
2022/02/03 08:05:53;;;;;;;;;;;;;;;17.36;47.83;100005.28;2065597;28;19925;-65
2022/02/03 08:06:54;;;;;;;;;;;;;;;17.36;48.09;100001.72;2063689;28;20682;-65
2022/02/03 08:08:03;;;;;;;;;;;;;;;17.36;48.15;99997.13;2062034;28;20454;-65
2022/02/03 08:09:08;;;;;;;;;;;;;;;17.36;47.94;99996.25;2064957;28;19999;-66
2022/02/03 08:10:17;;;;;;;;;;;;;;;17.35;47.91;100000.84;2064733;28;19909;-65
2022/02/03 08:11:24;;;;;;;;;;;;;;;17.36;47.84;100007.16;2065890;28;20751;-66
2022/02/03 08:12:30;;;;;;;;;;;;;;;17.34;48.07;99998.25;2063221;28;19986;-65
2022/02/03 08:13:36;;;;;;;;;;;;;;;17.33;47.93;99997.41;2066498;28;20875;-65
2022/02/03 08:14:42;;;;;;;;;;;;;;;17.35;48.18;100002.72;2064911;28;19924;-65
2022/02/03 08:15:43;;;;;;;;;;;;;;;17.33;47.94;100000.13;2066529;28;19927;-66
2022/02/03 08:16:55;;;;;;;;;;;;;;;17.33;47.98;99993.81;2065981;28;19913;-66
2022/02/03 08:18:02;;;;;;;;;;;;;;;17.34;48.07;99995.53;2064911;28;19909;-66
2022/02/03 08:19:08;;;;;;;;;;;;;;;17.33;47.91;99996.56;2065839;28;20282;-66
2022/02/03 08:20:14;;;;;;;;;;;;;;;17.31;48.04;99993.09;2065313;28;20232;-66
2022/02/03 08:21:16;;;;;;;;;;;;;;;17.31;47.97;99990.38;2062190;28;19925;-67
2022/02/03 08:22:25;;;;;;;;;;;;;;;17.31;48.08;99982.19;2062318;28;19962;-67
2022/02/03 08:24:31;;;;;;;;;;;;;;;17.31;47.86;99979.47;2064866;28;19921;-68
2022/02/03 08:25:32;;;;;;;;;;;;;;;17.31;47.89;99974.88;2065396;28;20754;-67
2022/02/03 08:26:55;;;;;;;;;;;;;;;17.32;47.79;99984.81;2064498;28;20572;-67
2022/02/03 08:32:17;;;;;;;;;;;;;;;17.33;47.94;99991.09;2034578;28;20326;-67
2022/02/03 08:33:20;;;;;;;;;;;;;;;17.35;47.79;100000.00;2049444;28;19918;-67
2022/02/03 08:34:33;;;;;;;;;;;;;;;17.33;47.93;99997.41;2049375;28;19948;-67
2022/02/03 08:35:36;;;;;;;;;;;;;;;17.34;47.95;100001.00;2064739;28;19909;-67
2022/02/03 08:36:37;;;;;;;;;;;;;;;17.34;47.82;99992.81;2066660;28;19976;-67
2022/02/03 08:39:56;;;;;;;;;;;;;;;17.34;47.78;99998.25;2063157;28;19917;-68
2022/02/03 08:41:01;;;;;;;;;;;;;;;17.32;47.80;99994.81;2067899;28;19920;-67
2022/02/03 08:42:02;;;;;;;;;;;;;;;17.34;47.69;100003.72;2064882;28;19959;-67
2022/02/03 08:43:02;;;;;;;;;;;;;;;17.34;47.82;99992.81;2065920;28;20252;-66
2022/02/03 08:44:03;;;;;;;;;;;;;;;17.33;47.78;100002.00;2067267;28;20621;-65
2022/02/03 08:45:03;;;;;;;;;;;;;;;17.33;47.83;99999.28;2062847;28;19913;-67
2022/02/03 08:46:06;;;;;;;;;;;;;;;17.31;47.97;99998.56;2064313;28;20334;-66
2022/02/03 08:47:06;;;;;;;;;;;;;;;17.29;47.83;99997.81;2062428;28;20448;-66
2022/02/03 08:48:07;;;;;;;;;;;;;;;17.28;48.06;100004.28;2067355;28;20276;-66
2022/02/03 08:49:07;;;;;;;;;;;;;;;17.28;47.99;99999.69;2061094;28;19909;-66
2022/02/03 08:50:08;;;;;;;;;;;;;;;17.27;48.07;100008.00;2063968;28;20131;-66
2022/02/03 08:51:12;;;;;;;;;;;;;;;17.27;48.34;100003.44;2069001;28;19916;-65
2022/02/03 08:52:21;;;;;;;;;;;;;;;17.26;48.41;100007.16;2062951;28;19956;-66
2022/02/03 08:54:29;;;;;;;;;;;;;;;17.24;48.57;100016.47;2067458;28;19999;-67
2022/02/03 08:56:44;;;;;;;;;;;;;;;17.23;48.84;100022.91;2064743;28;20621;-66
2022/02/03 09:00:37;;;;;;;;;;;;;;;17.21;48.63;100024.91;2062190;28;20333;-66
2022/02/03 09:38:21;;;;;;;;;;;;;;;17.03;49.17;100071.03;2065253;28;19925;-64
2022/02/03 09:56:14;;;;;;;;;;;;;;;16.95;48.82;100085.28;2068218;28;19917;-63
2022/02/03 09:58:21;;;;;;;;;;;;;;;16.95;49.01;100088.03;2072705;28;19920;-63
2022/02/03 09:59:32;;;;;;;;;;;;;;;16.96;49.06;100084.31;2065184;28;20043;-62
2022/02/03 10:00:53;;;;;;;;;;;;;;;16.96;48.90;100087.03;2068064;28;19968;-62
2022/02/03 10:02:06;;;;;;;;;;;;;;;16.96;48.92;100092.50;2066935;28;20109;-63
2022/02/03 10:03:13;;;;;;;;;;;;;;;16.96;49.01;100087.03;2064248;28;19917;-63
2022/02/03 10:04:18;;;;;;;;;;;;;;;16.99;48.90;100094.94;2065588;28;19921;-63
2022/02/03 10:05:32;;;;;;;;;;;;;;;17.00;48.89;100088.50;2066720;28;20740;-63
2022/02/03 10:06:38;;;;;;;;;;;;;;;17.00;48.78;100091.22;2069192;28;19975;-63
2022/02/03 10:07:39;;;;;;;;;;;;;;;17.00;48.82;100096.66;2066140;28;19921;-62
2022/02/03 10:08:49;;;;;;;;;;;;;;;17.00;48.82;100085.78;2066780;28;19966;-63
2022/02/03 10:09:52;;;;;;;;;;;;;;;17.01;48.87;100081.19;2066171;28;20361;-63
2022/02/03 10:11:09;;;;;;;;;;;;;;;17.01;49.02;100083.91;2067511;28;20008;-63
2022/02/03 10:12:10;;;;;;;;;;;;;;;17.01;49.08;100083.91;2063762;28;20004;-62
2022/02/03 10:13:23;;;;;;;;;;;;;;;17.00;49.05;100080.34;2065741;28;20388;-62
2022/02/03 10:14:30;;;;;;;;;;;;;;;16.98;49.10;100081.44;2065458;28;19983;-62
2022/02/03 10:15:31;;;;;;;;;;;;;;;16.97;49.06;100075.13;2065105;28;19909;-62
2022/02/03 10:16:32;;;;;;;;;;;;;;;16.97;49.05;100072.41;2062342;28;19914;-63
2022/02/03 10:17:40;;;;;;;;;;;;;;;16.95;49.10;100073.53;2066566;28;19937;-63
2022/02/03 10:18:41;;;;;;;;;;;;;;;16.96;49.00;100070.69;2064173;28;19917;-62
2022/02/03 10:19:45;;;;;;;;;;;;;;;16.96;48.97;100073.44;2067373;28;19944;-63
2022/02/03 10:20:49;;;;;;;;;;;;;;;16.97;48.93;100080.59;2061071;28;19956;-64
2022/02/03 10:21:50;;;;;;;;;;;;;;;16.94;48.98;100075.41;2063121;28;20020;-64
2022/02/03 10:22:56;;;;;;;;;;;;;;;16.95;49.10;100074.41;2060122;28;20002;-64
2022/02/03 10:23:59;;;;;;;;;;;;;;;16.94;49.11;100083.59;2067076;28;19975;-64
2022/02/03 10:25:00;;;;;;;;;;;;;;;16.94;48.89;100083.59;2066103;28;20717;-64
2022/02/03 10:26:07;;;;;;;;;;;;;;;16.95;48.86;100079.84;2067142;28;19947;-65
2022/02/03 10:27:17;;;;;;;;;;;;;;;16.94;48.79;100078.13;2068669;28;19920;-64
2022/02/03 10:28:18;;;;;;;;;;;;;;;16.95;48.82;100076.28;2066508;28;19944;-64
2022/02/03 10:29:20;;;;;;;;;;;;;;;16.94;48.81;100072.69;2065876;28;19913;-63
2022/02/03 10:30:27;;;;;;;;;;;;;;;16.95;48.85;100068.97;2067716;28;20435;-62
2022/02/03 10:31:33;;;;;;;;;;;;;;;16.94;48.70;100061.81;2063918;28;20301;-63
2022/02/03 10:32:38;;;;;;;;;;;;;;;16.94;48.79;100072.69;2066039;28;19921;-63
2022/02/03 10:33:40;;;;;;;;;;;;;;;16.95;48.74;100073.53;2066692;28;20066;-63
2022/02/03 10:34:42;;;;;;;;;;;;;;;16.95;48.60;100068.09;2067347;28;20454;-63
2022/02/03 10:37:11;;;;;;;;;;;;;;;16.97;48.76;100077.00;2065603;28;20399;-63
2022/02/03 10:38:35;;;;;;;;;;;;;;;16.96;48.57;100069.84;2065954;28;20677;-63
2022/02/03 10:41:52;;;;;;;;;;;;;;;16.97;48.86;100071.56;2067446;28;19916;-63
2022/02/03 10:42:26;;;;;;;;;;;;;;;16.98;48.74;100081.44;2061364;28;19917;-63
2022/02/03 10:48:48;;;;;;;;;;;;;;;16.98;48.61;100103.22;2063025;28;19909;-63
2022/02/03 10:50:12;;;;;;;;;;;;;;;16.98;48.71;100106.84;2066529;28;20355;-63
2022/02/03 10:52:16;;;;;;;;;;;;;;;16.97;49.09;100105.09;2062765;28;19909;-63
2022/02/03 10:52:55;;;;;;;;;;;;;;;16.97;49.15;100110.53;2057289;28;19948;-63
2022/02/03 10:54:12;;;;;;;;;;;;;;;16.97;49.36;100104.22;2064840;28;19924;-64
2022/02/03 10:58:12;;;;;;;;;;;;;;;16.97;49.56;100093.34;2067631;28;19917;-64
2022/02/03 11:06:31;;;;;;;;;;;;;;;16.97;51.32;100105.09;2066864;28;19917;-63
2022/02/03 11:07:43;;;;;;;;;;;;;;;16.96;51.36;100111.53;2063936;28;19918;-64
2022/02/03 11:08:53;;;;;;;;;;;;;;;16.96;51.24;100111.53;2067200;28;20008;-63
2022/02/03 11:10:15;;;;;;;;;;;;;;;16.95;51.53;100112.53;2063868;28;19923;-64
2022/02/03 11:11:21;;;;;;;;;;;;;;;16.95;52.32;100115.25;2067043;28;20015;-63
2022/02/03 11:12:23;;;;;;;;;;;;;;;16.95;52.98;100123.41;2065372;28;20783;-63
2022/02/03 11:13:29;;;;;;;;;;;;;;;16.94;52.80;100118.97;2066222;28;19917;-64
2022/02/03 11:14:31;;;;;;;;;;;;;;;16.94;53.39;100132.59;2065384;28;20359;-64
2022/02/03 11:15:33;;;;;;;;;;;;;;;16.95;53.26;100128.00;2067244;28;19921;-63
2022/02/03 11:16:36;;;;;;;;;;;;;;;16.93;53.95;100137.19;2066153;28;19917;-64
2022/02/03 11:17:37;;;;;;;;;;;;;;;16.93;53.70;100144.50;2063182;28;19917;-64
2022/02/03 11:18:39;;;;;;;;;;;;;;;16.92;53.82;100135.44;2070962;28;19927;-65
2022/02/03 11:19:41;;;;;;;;;;;;;;;16.91;53.93;100133.72;2068832;28;20395;-65
2022/02/03 11:20:43;;;;;;;;;;;;;;;16.92;54.02;100137.31;2063201;28;19923;-65
2022/02/03 11:21:49;;;;;;;;;;;;;;;16.92;54.05;100129.13;2057023;28;19934;-65
2022/02/03 11:24:01;;;;;;;;;;;;;;;16.89;53.39;100145.75;2065055;28;19929;-65
2022/02/03 11:25:15;;;;;;;;;;;;;;;16.90;53.16;100150.19;2066207;28;19921;-65